createdAt,value
2022-08-03T04:05:04.097Z,98779.44
2022-08-03T04:09:34.485Z,98772.16
2022-08-03T04:13:51.659Z,98777.41
2022-08-03T04:18:04.295Z,98776.63
2022-08-03T04:22:19.731Z,98776.59
2022-08-03T04:26:36.239Z,98787.34
2022-08-03T04:30:50.679Z,98776.22
2022-08-03T04:35:02.627Z,98789.97
2022-08-03T04:39:19.686Z,98784.13
2022-08-03T04:43:34.525Z,98793.22
2022-08-03T04:47:46.780Z,98792.22
2022-08-03T04:51:58.696Z,98794.84
2022-08-03T04:56:10.425Z,98801.94
2022-08-03T05:00:22.456Z,98804.38
2022-08-03T05:04:34.091Z,98805.38
2022-08-03T05:08:47.166Z,98806.97
2022-08-03T05:13:00.393Z,98812.50
2022-08-03T05:17:11.977Z,98810.25
2022-08-03T05:21:23.539Z,98810.25
2022-08-03T05:25:35.090Z,98812.66
2022-08-03T05:29:48.024Z,98816.72
2022-08-03T05:33:59.574Z,98817.53
2022-08-03T05:38:11.104Z,98815.09
2022-08-03T05:42:23.324Z,98815.81
2022-08-03T05:46:34.883Z,98812.09
2022-08-03T05:50:46.411Z,98812.47
2022-08-03T05:54:58.136Z,98805.34
2022-08-03T05:59:35.784Z,98787.47
2022-08-03T06:03:41.431Z,98781.00
2022-08-03T06:07:53.553Z,98781.94
2022-08-03T06:12:05.332Z,98781.13
2022-08-03T06:16:17.054Z,98788.66
2022-08-03T06:20:28.754Z,98783.78
2022-08-03T06:24:40.663Z,98779.22
2022-08-03T06:29:04.956Z,98780.03
2022-08-03T06:33:20.300Z,98790.53
2022-08-03T06:37:31.999Z,98785.72
2022-08-03T06:41:44.980Z,98790.34
2022-08-03T06:45:56.649Z,98788.47
2022-08-03T06:50:14.407Z,98785.47
2022-08-03T06:54:28.279Z,98793.16
2022-08-03T06:58:39.825Z,98801.31
2022-08-03T07:02:54.866Z,98799.34
2022-08-03T07:07:09.554Z,98808.22
2022-08-03T07:11:21.414Z,98807.97
2022-08-03T07:15:54.477Z,98810.88
2022-08-03T07:20:07.357Z,98806.44
2022-08-03T07:24:18.913Z,98805.72
2022-08-03T07:28:30.611Z,98805.75
2022-08-03T07:32:50.161Z,98804.31
2022-08-03T07:37:02.285Z,98801.31
2022-08-03T07:41:13.814Z,98801.16
2022-08-03T07:45:26.519Z,98803.63
2022-08-03T07:49:41.737Z,98798.19
2022-08-03T07:53:53.653Z,98805.44
2022-08-03T07:58:12.190Z,98806.44
2022-08-03T08:02:23.831Z,98805.78
2022-08-03T08:06:35.443Z,98806.50
2022-08-03T08:10:57.939Z,98805.69
2022-08-03T08:15:10.217Z,98790.53
2022-08-03T08:19:21.728Z,98792.41
2022-08-03T08:23:43.752Z,98789.88
2022-08-03T08:28:22.172Z,98787.63
2022-08-03T08:32:27.398Z,98783.31
2022-08-03T08:36:38.971Z,98784.72
2022-08-03T08:40:50.726Z,98783.41
2022-08-03T08:45:05.143Z,98780.50
2022-08-03T08:49:23.246Z,98784.41
2022-08-03T08:53:37.223Z,98780.41
2022-08-03T08:58:05.036Z,98781.94
2022-08-03T09:02:17.840Z,98781.72
2022-08-03T09:06:29.557Z,98778.53
2022-08-03T09:10:41.242Z,98775.78
2022-08-03T09:15:14.878Z,98772.72
2022-08-03T09:19:24.336Z,98774.75
2022-08-03T09:24:02.724Z,98770.88
2022-08-03T09:28:52.523Z,98773.63
2022-08-03T09:32:49.247Z,98769.78
2022-08-03T09:37:02.189Z,98766.16
2022-08-03T09:41:18.574Z,98756.00
2022-08-03T09:45:30.186Z,98757.38
2022-08-03T09:49:42.779Z,98753.22
2022-08-03T09:54:00.226Z,98750.22
2022-08-03T09:58:14.259Z,98748.25
2022-08-03T10:02:27.365Z,98749.06
2022-08-03T10:06:38.918Z,98745.91
2022-08-03T10:10:54.117Z,98744.53
2022-08-03T10:19:27.484Z,98731.84
2022-08-03T10:23:41.239Z,98722.53
2022-08-03T10:27:53.420Z,98720.34
2022-08-03T10:32:19.012Z,98710.16
2022-08-03T10:36:32.007Z,98714.25
2022-08-03T10:40:54.653Z,98713.38
2022-08-03T10:45:18.120Z,98706.34
2022-08-03T10:49:34.516Z,98707.44
2022-08-03T10:53:54.351Z,98696.47
2022-08-03T10:58:11.136Z,98693.63
2022-08-03T11:02:22.897Z,98697.94
2022-08-03T11:06:37.762Z,98692.22
2022-08-03T11:10:51.217Z,98689.41
2022-08-03T11:15:08.764Z,98683.75
2022-08-03T11:19:27.935Z,98682.50
2022-08-03T11:24:03.444Z,98669.22
2022-08-03T11:28:30.882Z,98672.72
2022-08-03T11:32:46.871Z,98665.69
2022-08-03T11:37:22.657Z,98668.16
2022-08-03T11:41:44.852Z,98661.28
2022-08-03T11:46:02.264Z,98664.81
2022-08-03T11:50:13.990Z,98672.38
2022-08-03T11:54:30.314Z,98668.72
2022-08-03T11:59:16.705Z,98657.94
2022-08-03T12:03:21.833Z,98657.00
2022-08-03T12:08:04.316Z,98663.56
2022-08-03T12:12:07.971Z,98661.00
2022-08-03T12:16:26.472Z,98653.28
2022-08-03T12:20:38.297Z,98657.56
2022-08-03T12:24:51.775Z,98652.19
2022-08-03T12:29:03.540Z,98644.72
2022-08-03T12:33:27.818Z,98637.09
2022-08-03T12:37:49.585Z,98643.47
2022-08-03T12:42:01.224Z,98633.09
2022-08-03T12:46:15.717Z,98622.59
2022-08-03T12:50:38.257Z,98625.31
2022-08-03T12:54:58.137Z,98630.38
2022-08-03T12:59:35.157Z,98623.56
2022-08-03T13:03:54.594Z,98629.13
2022-08-03T13:08:18.803Z,98620.06
2022-08-03T13:12:31.664Z,98619.06
2022-08-03T13:16:45.605Z,98612.34
2022-08-03T13:20:57.236Z,98612.22
2022-08-03T13:25:09.392Z,98602.53
2022-08-03T13:29:20.975Z,98594.28
2022-08-03T13:33:32.886Z,98601.84
2022-08-03T13:37:44.533Z,98582.06
2022-08-03T13:42:00.516Z,98589.06
2022-08-03T13:46:12.158Z,98583.13
2022-08-03T13:50:23.740Z,98578.47
2022-08-03T13:54:35.353Z,98579.44
2022-08-03T13:58:46.950Z,98573.91
2022-08-03T14:03:13.761Z,98578.31
2022-08-03T14:07:25.908Z,98569.72
2022-08-03T14:12:07.685Z,98565.59
2022-08-03T14:16:09.967Z,98561.78
2022-08-03T14:20:36.302Z,98554.59
2022-08-03T14:24:50.635Z,98556.25
2022-08-03T14:29:04.856Z,98550.59
2022-08-03T14:33:16.554Z,98551.63
2022-08-03T14:37:28.747Z,98548.44
2022-08-03T14:41:40.312Z,98540.28
2022-08-03T14:45:53.613Z,98540.56
2022-08-03T14:50:38.677Z,98549.81
2022-08-03T14:54:38.017Z,98540.03
2022-08-03T14:58:49.578Z,98529.72
2022-08-03T15:03:01.617Z,98542.38
2022-08-03T15:07:13.401Z,98526.56
2022-08-03T15:11:25.043Z,98517.59
2022-08-03T15:15:36.691Z,98509.41
2022-08-03T15:20:01.134Z,98512.72
2022-08-03T15:24:19.854Z,98498.69
2022-08-03T15:28:32.052Z,98494.06
2022-08-03T15:32:43.635Z,98483.25
2022-08-03T15:36:55.192Z,98492.03
2022-08-03T15:41:11.330Z,98490.38
2022-08-03T15:45:25.539Z,98483.41
2022-08-03T15:49:39.484Z,98476.78
2022-08-03T15:53:51.114Z,98477.50
2022-08-03T15:59:10.430Z,98479.28
2022-08-03T16:02:34.334Z,98473.22
2022-08-03T16:06:46.048Z,98473.41
2022-08-03T16:10:58.515Z,98468.16
2022-08-03T16:15:12.485Z,98474.97
2022-08-03T16:19:23.998Z,98465.09
2022-08-03T16:23:37.777Z,98468.47
2022-08-03T16:28:03.299Z,98467.50
2022-08-03T16:32:19.843Z,98462.44
2022-08-03T16:36:34.808Z,98469.19
2022-08-03T16:40:51.655Z,98457.88
2022-08-03T16:45:05.460Z,98451.00
2022-08-03T16:49:54.498Z,98451.66
2022-08-03T16:54:05.632Z,98455.59
2022-08-03T16:58:24.295Z,98452.78
2022-08-03T17:02:51.842Z,98445.88
2022-08-03T17:07:04.550Z,98455.19
2022-08-03T17:11:16.869Z,98452.03
2022-08-03T17:15:38.481Z,98453.34
2022-08-03T17:20:09.474Z,98450.00
2022-08-03T17:24:31.889Z,98451.94
2022-08-03T17:28:57.663Z,98444.78
2022-08-03T17:33:20.300Z,98450.50
2022-08-03T17:37:57.846Z,98452.75
2022-08-03T17:42:05.308Z,98446.41
2022-08-03T17:46:36.835Z,98449.25
2022-08-03T17:51:00.017Z,98448.31
2022-08-03T17:55:57.326Z,98443.56
2022-08-03T18:00:25.830Z,98450.69
2022-08-03T18:04:43.935Z,98451.16
2022-08-03T18:10:03.527Z,98452.13
2022-08-03T18:13:43.819Z,98455.16
2022-08-03T18:18:10.590Z,98455.31
2022-08-03T18:22:26.840Z,98452.44
2022-08-03T18:26:38.685Z,98453.38
2022-08-03T18:30:54.038Z,98456.53
2022-08-03T18:35:07.136Z,98456.16
2022-08-03T18:39:26.843Z,98461.63
2022-08-03T18:43:47.680Z,98467.44
2022-08-03T18:48:27.741Z,98458.78
2022-08-03T18:52:54.466Z,98465.84
2022-08-03T18:57:07.261Z,98467.16
2022-08-03T19:01:59.981Z,98470.94
2022-08-03T19:06:21.524Z,98471.44
2022-08-03T19:10:35.110Z,98475.44
2022-08-03T19:14:56.355Z,98475.69
2022-08-03T19:23:47.067Z,98480.41
2022-08-03T19:28:00.519Z,98486.25
2022-08-03T19:32:16.599Z,98495.03
2022-08-03T19:36:29.840Z,98494.19
2022-08-03T19:40:45.151Z,98496.06
2022-08-03T19:45:11.049Z,98496.78
2022-08-03T19:50:04.843Z,98495.59
2022-08-03T19:54:02.243Z,98501.13
2022-08-03T19:58:17.757Z,98502.09
2022-08-03T20:02:40.905Z,98505.88
2022-08-03T20:06:56.953Z,98505.44
2022-08-03T20:11:10.452Z,98506.06
2022-08-03T20:15:31.456Z,98511.72
2022-08-03T20:19:43.667Z,98510.19
2022-08-03T20:24:03.283Z,98504.59
2022-08-03T20:28:34.995Z,98512.13
2022-08-03T20:33:01.722Z,98506.81
2022-08-03T20:37:13.481Z,98498.31
2022-08-03T20:41:25.041Z,98504.78
2022-08-03T20:45:59.040Z,98504.78
2022-08-03T20:50:10.954Z,98505.06
2022-08-03T20:54:30.559Z,98501.88
2022-08-03T20:58:43.445Z,98505.91
2022-08-03T21:03:02.626Z,98500.00
2022-08-03T21:07:22.876Z,98497.34
2022-08-03T21:11:44.412Z,98500.03
2022-08-03T21:13:08.414Z,98475.56
2022-08-03T21:16:11.684Z,98499.47
2022-08-03T21:20:33.201Z,98500.56
2022-08-03T21:24:46.278Z,98505.34
2022-08-03T21:28:57.929Z,98502.91
